Time;durP1;ratioP1;P1;durP2;ratioP2;P2;SDS_P1;SDS_P2;PMS_P1;PMS_P2;Temp;Humidity;BMP_temperature;BMP_pressure;BME280_temperature;BME280_humidity;BME280_pressure;Samples;Min_cycle;Max_cycle;Signal;HPM_P1;HPM_P2
2024/04/06 00:00:19;;;;;;;11.45;5.45;;;;;;;;;;2073402;28;20028;-72
2024/04/06 00:01:23;;;;;;;9.30;5.63;;;;;;;;;;2073774;28;20029;-72
2024/04/06 00:02:25;;;;;;;12.10;5.97;;;;;;;;;;2072073;28;20018;-73
2024/04/06 00:03:26;;;;;;;18.75;6.75;;;;;;;;;;2073168;28;20026;-73
2024/04/06 00:04:28;;;;;;;12.50;6.05;;;;;;;;;;2073092;28;20034;-69
2024/04/06 00:05:31;;;;;;;14.60;6.03;;;;;;;;;;2073647;28;20391;-71
2024/04/06 00:06:32;;;;;;;11.25;6.15;;;;;;;;;;2073649;28;20018;-71
2024/04/06 00:07:34;;;;;;;13.65;5.65;;;;;;;;;;2073703;28;20049;-71
2024/04/06 00:08:35;;;;;;;13.82;5.85;;;;;;;;;;2073547;28;20029;-71
2024/04/06 00:09:36;;;;;;;11.65;5.50;;;;;;;;;;2072916;28;20498;-72
2024/04/06 00:10:38;;;;;;;12.57;5.93;;;;;;;;;;2073021;28;20018;-72
2024/04/06 00:11:39;;;;;;;10.73;4.85;;;;;;;;;;2073677;28;20018;-73
2024/04/06 00:12:40;;;;;;;10.52;5.05;;;;;;;;;;2073553;28;20095;-69
2024/04/06 00:13:42;;;;;;;9.65;4.45;;;;;;;;;;2070909;28;20029;-73
2024/04/06 00:14:43;;;;;;;7.32;3.80;;;;;;;;;;2073633;28;20030;-73
2024/04/06 00:15:44;;;;;;;10.85;4.45;;;;;;;;;;2073587;28;20029;-72
2024/04/06 00:16:46;;;;;;;6.53;3.47;;;;;;;;;;2073568;28;20391;-73
2024/04/06 00:17:47;;;;;;;7.85;4.47;;;;;;;;;;2073519;28;20021;-74
2024/04/06 00:18:49;;;;;;;6.93;3.35;;;;;;;;;;2073710;28;20020;-73
2024/04/06 00:19:51;;;;;;;8.25;3.42;;;;;;;;;;2073577;28;20120;-73
2024/04/06 00:20:52;;;;;;;8.15;3.20;;;;;;;;;;2073616;28;20131;-70
2024/04/06 00:21:55;;;;;;;10.68;3.25;;;;;;;;;;2073382;28;20517;-70
2024/04/06 00:22:56;;;;;;;13.20;3.90;;;;;;;;;;2072889;28;20149;-71
2024/04/06 00:23:58;;;;;;;6.45;3.13;;;;;;;;;;2074073;28;20368;-74
2024/04/06 00:24:59;;;;;;;7.25;3.33;;;;;;;;;;2072989;28;20068;-71
2024/04/06 00:26:01;;;;;;;5.20;2.30;;;;;;;;;;2072991;28;20024;-73
2024/04/06 00:27:02;;;;;;;7.10;2.70;;;;;;;;;;2073584;28;20057;-71
2024/04/06 00:28:03;;;;;;;6.05;2.35;;;;;;;;;;2073346;28;20486;-70
2024/04/06 00:29:05;;;;;;;5.60;2.17;;;;;;;;;;2073479;28;20083;-70
2024/04/06 00:30:07;;;;;;;11.88;1.85;;;;;;;;;;2073495;28;20475;-71
2024/04/06 00:31:08;;;;;;;5.47;1.63;;;;;;;;;;2073605;28;20030;-74
2024/04/06 00:32:10;;;;;;;3.95;1.40;;;;;;;;;;2073251;28;20014;-72
2024/04/06 00:33:11;;;;;;;6.07;1.80;;;;;;;;;;2073195;28;20406;-70
2024/04/06 00:34:13;;;;;;;5.55;1.45;;;;;;;;;;2071038;28;20450;-72
2024/04/06 00:35:15;;;;;;;6.53;1.52;;;;;;;;;;2073134;28;20105;-73
2024/04/06 00:36:17;;;;;;;4.75;1.58;;;;;;;;;;2073247;28;20490;-72
2024/04/06 00:37:18;;;;;;;5.10;1.35;;;;;;;;;;2073269;28;20024;-71
2024/04/06 00:38:19;;;;;;;4.90;1.52;;;;;;;;;;2073537;28;20045;-72
2024/04/06 00:39:21;;;;;;;4.32;1.50;;;;;;;;;;2073443;28;20025;-70
2024/04/06 00:40:22;;;;;;;4.93;1.23;;;;;;;;;;2072290;28;20037;-72
2024/04/06 00:41:24;;;;;;;3.53;1.17;;;;;;;;;;2073451;28;20025;-70
2024/04/06 00:42:25;;;;;;;3.60;1.27;;;;;;;;;;2073260;28;20041;-70
2024/04/06 00:43:28;;;;;;;7.47;1.40;;;;;;;;;;2073364;28;20025;-72
2024/04/06 00:44:29;;;;;;;5.20;1.35;;;;;;;;;;2073387;28;20049;-71
2024/04/06 00:45:31;;;;;;;4.15;1.65;;;;;;;;;;2073449;28;20026;-70
2024/04/06 00:46:33;;;;;;;4.78;1.48;;;;;;;;;;2073476;28;20029;-71
2024/04/06 00:47:35;;;;;;;5.63;1.13;;;;;;;;;;2070626;28;20044;-70
2024/04/06 00:48:36;;;;;;;4.05;1.10;;;;;;;;;;2069703;28;20134;-71
2024/04/06 00:49:38;;;;;;;3.50;1.02;;;;;;;;;;2072193;28;20026;-72
2024/04/06 00:50:40;;;;;;;5.75;1.48;;;;;;;;;;2072799;28;20021;-73
2024/04/06 00:51:41;;;;;;;5.03;1.25;;;;;;;;;;2072458;28;20017;-71
2024/04/06 00:52:42;;;;;;;6.57;1.10;;;;;;;;;;2073344;28;20033;-71
2024/04/06 00:53:44;;;;;;;2.47;1.10;;;;;;;;;;2073317;28;20487;-73
2024/04/06 00:54:45;;;;;;;4.25;1.02;;;;;;;;;;2073433;28;20546;-72
2024/04/06 00:55:47;;;;;;;4.03;1.38;;;;;;;;;;2081000;28;20036;-70
2024/04/06 00:56:49;;;;;;;6.05;1.23;;;;;;;;;;2079411;28;20021;-73
2024/04/06 00:57:50;;;;;;;6.22;1.75;;;;;;;;;;2073387;28;20022;-74
2024/04/06 00:58:52;;;;;;;5.65;1.20;;;;;;;;;;2073419;28;20022;-74
2024/04/06 00:59:54;;;;;;;2.85;1.00;;;;;;;;;;2073316;28;20514;-73
2024/04/06 01:00:56;;;;;;;7.03;1.13;;;;;;;;;;2072551;28;20072;-72
2024/04/06 01:01:57;;;;;;;7.00;1.33;;;;;;;;;;2072533;28;20049;-70
2024/04/06 01:02:59;;;;;;;4.25;1.02;;;;;;;;;;2073340;28;20030;-72
2024/04/06 01:04:00;;;;;;;9.32;1.60;;;;;;;;;;2073347;28;20022;-73
2024/04/06 01:05:01;;;;;;;4.15;1.10;;;;;;;;;;2071775;28;20030;-73
2024/04/06 01:06:03;;;;;;;3.90;1.65;;;;;;;;;;2069966;28;20068;-72
2024/04/06 01:07:05;;;;;;;4.28;1.23;;;;;;;;;;2073337;28;20121;-73
2024/04/06 01:08:06;;;;;;;3.90;1.30;;;;;;;;;;2072669;28;20013;-72
2024/04/06 01:09:09;;;;;;;3.45;1.02;;;;;;;;;;2072729;28;20053;-74
2024/04/06 01:10:11;;;;;;;12.77;1.70;;;;;;;;;;2073034;28;20105;-70
2024/04/06 01:11:12;;;;;;;2.38;1.08;;;;;;;;;;2073268;28;20060;-70
2024/04/06 01:12:15;;;;;;;2.30;1.17;;;;;;;;;;2073310;28;20120;-73
2024/04/06 01:13:16;;;;;;;5.75;1.55;;;;;;;;;;2071886;28;20076;-72
2024/04/06 01:14:17;;;;;;;5.63;1.35;;;;;;;;;;2072737;28;20010;-74
2024/04/06 01:15:20;;;;;;;3.40;1.20;;;;;;;;;;2073086;28;20104;-71
2024/04/06 01:16:24;;;;;;;6.25;1.58;;;;;;;;;;2072544;28;20491;-72
2024/04/06 01:17:25;;;;;;;3.53;1.13;;;;;;;;;;2070684;28;20040;-70
2024/04/06 01:18:28;;;;;;;5.95;1.35;;;;;;;;;;2073122;28;20033;-72
2024/04/06 01:19:29;;;;;;;3.22;1.10;;;;;;;;;;2073207;28;20079;-73
2024/04/06 01:20:35;;;;;;;3.97;1.00;;;;;;;;;;2073049;28;20101;-72
2024/04/06 01:21:38;;;;;;;3.85;1.00;;;;;;;;;;2071500;28;20021;-73
2024/04/06 01:22:39;;;;;;;6.63;1.33;;;;;;;;;;2073157;28;20026;-74
2024/04/06 01:23:42;;;;;;;5.20;1.33;;;;;;;;;;2073246;28;20022;-73
2024/04/06 01:24:44;;;;;;;2.78;0.98;;;;;;;;;;2072590;28;20073;-70
2024/04/06 01:25:46;;;;;;;2.47;1.17;;;;;;;;;;2072498;28;20092;-72
2024/04/06 01:26:47;;;;;;;4.68;1.50;;;;;;;;;;2072935;28;20083;-73
2024/04/06 01:27:50;;;;;;;7.28;1.38;;;;;;;;;;2073041;28;20018;-73
2024/04/06 01:28:51;;;;;;;8.85;1.55;;;;;;;;;;2073075;28;20399;-73
2024/04/06 01:29:53;;;;;;;4.90;1.13;;;;;;;;;;2069798;28;20030;-74
2024/04/06 01:30:55;;;;;;;7.05;1.77;;;;;;;;;;2072538;28;20037;-73
2024/04/06 01:31:57;;;;;;;3.50;0.95;;;;;;;;;;2073116;28;20102;-73
2024/04/06 01:32:58;;;;;;;1.75;0.90;;;;;;;;;;2072485;28;20026;-75
2024/04/06 01:34:01;;;;;;;2.92;0.75;;;;;;;;;;2072574;28;20022;-71
2024/04/06 01:35:02;;;;;;;8.15;1.33;;;;;;;;;;2073010;28;20521;-73
2024/04/06 01:36:03;;;;;;;2.58;0.95;;;;;;;;;;2073127;28;20030;-72
2024/04/06 01:37:06;;;;;;;4.35;0.93;;;;;;;;;;2073042;28;20422;-72
2024/04/06 01:38:08;;;;;;;3.97;1.13;;;;;;;;;;2073047;28;20109;-73
2024/04/06 01:39:09;;;;;;;3.63;1.15;;;;;;;;;;2073129;28;20033;-74
2024/04/06 01:40:12;;;;;;;5.95;1.30;;;;;;;;;;2073035;28;20028;-73
2024/04/06 01:41:13;;;;;;;3.97;1.02;;;;;;;;;;2073443;28;20037;-70
2024/04/06 01:42:15;;;;;;;4.40;1.27;;;;;;;;;;2073237;28;20024;-72
2024/04/06 01:43:17;;;;;;;4.32;0.90;;;;;;;;;;2072839;28;20479;-71
2024/04/06 01:44:19;;;;;;;5.63;0.93;;;;;;;;;;2073208;28;20482;-72
2024/04/06 01:45:20;;;;;;;4.32;0.98;;;;;;;;;;2073152;28;20038;-71
2024/04/06 01:46:21;;;;;;;8.45;1.00;;;;;;;;;;2073003;28;20022;-71
2024/04/06 01:47:23;;;;;;;3.95;1.27;;;;;;;;;;2070458;28;20091;-72
2024/04/06 01:48:24;;;;;;;2.58;1.30;;;;;;;;;;2072313;28;20104;-70
2024/04/06 01:49:27;;;;;;;5.10;1.13;;;;;;;;;;2072328;28;20056;-70
2024/04/06 01:50:28;;;;;;;5.85;1.40;;;;;;;;;;2073026;28;20026;-73
2024/04/06 01:51:30;;;;;;;3.28;0.90;;;;;;;;;;2072317;28;20049;-71
2024/04/06 01:52:32;;;;;;;2.78;1.00;;;;;;;;;;2072398;28;20174;-74
2024/04/06 01:53:34;;;;;;;6.07;1.52;;;;;;;;;;2073048;28;20041;-72
2024/04/06 01:54:36;;;;;;;3.50;0.93;;;;;;;;;;2072946;28;20022;-72
2024/04/06 01:55:38;;;;;;;3.70;0.98;;;;;;;;;;2072911;28;20022;-74
2024/04/06 01:56:39;;;;;;;2.50;1.05;;;;;;;;;;2072663;28;20026;-74
2024/04/06 01:57:41;;;;;;;2.90;1.00;;;;;;;;;;2072950;28;20032;-73
2024/04/06 01:58:44;;;;;;;3.97;1.15;;;;;;;;;;2070604;28;20049;-74
2024/04/06 01:59:46;;;;;;;6.55;0.90;;;;;;;;;;2072933;28;20037;-72
2024/04/06 02:00:47;;;;;;;3.40;1.30;;;;;;;;;;2073046;28;20034;-72
2024/04/06 02:01:50;;;;;;;3.45;0.93;;;;;;;;;;2073079;28;20022;-73
2024/04/06 02:02:51;;;;;;;5.82;1.38;;;;;;;;;;2073026;28;20064;-73
2024/04/06 02:03:53;;;;;;;6.43;1.63;;;;;;;;;;2069580;28;20149;-73
2024/04/06 02:04:55;;;;;;;3.28;1.08;;;;;;;;;;2074704;28;20022;-71
2024/04/06 02:05:57;;;;;;;3.10;1.40;;;;;;;;;;2074626;28;20481;-74
2024/04/06 02:06:58;;;;;;;3.90;0.90;;;;;;;;;;2074583;28;20068;-73
2024/04/06 02:08:00;;;;;;;4.63;1.20;;;;;;;;;;2074492;28;20518;-71
2024/04/06 02:09:03;;;;;;;5.40;1.42;;;;;;;;;;2074772;28;20038;-72
2024/04/06 02:10:04;;;;;;;3.28;1.15;;;;;;;;;;2072281;28;20088;-73
2024/04/06 02:11:06;;;;;;;3.50;1.20;;;;;;;;;;2074554;28;20487;-74
2024/04/06 02:12:08;;;;;;;3.15;1.40;;;;;;;;;;2073880;28;20025;-73
2024/04/06 02:13:09;;;;;;;6.22;1.10;;;;;;;;;;2073837;28;20025;-72
2024/04/06 02:14:11;;;;;;;5.80;1.20;;;;;;;;;;2074570;28;20387;-72
2024/04/06 02:15:12;;;;;;;5.25;1.02;;;;;;;;;;2074613;28;20064;-72
2024/04/06 02:16:16;;;;;;;4.72;1.17;;;;;;;;;;2074615;28;20034;-72
2024/04/06 02:17:17;;;;;;;3.95;1.08;;;;;;;;;;2074452;28;20028;-72
2024/04/06 02:18:19;;;;;;;3.45;1.02;;;;;;;;;;2074523;28;20049;-73
2024/04/06 02:19:20;;;;;;;5.07;1.42;;;;;;;;;;2074436;28;20026;-73
2024/04/06 02:20:22;;;;;;;5.05;1.27;;;;;;;;;;2074550;28;20038;-72
2024/04/06 02:21:23;;;;;;;6.95;1.33;;;;;;;;;;2071886;28;20037;-73
2024/04/06 02:22:24;;;;;;;5.75;1.30;;;;;;;;;;2074418;28;20057;-72
2024/04/06 02:23:26;;;;;;;4.90;1.52;;;;;;;;;;2074557;28;20056;-72
2024/04/06 02:24:27;;;;;;;3.88;1.20;;;;;;;;;;2074502;28;20025;-73
2024/04/06 02:25:28;;;;;;;2.83;1.30;;;;;;;;;;2074482;28;20367;-72
2024/04/06 02:26:30;;;;;;;2.45;1.00;;;;;;;;;;2074464;28;20040;-70
2024/04/06 02:27:32;;;;;;;3.75;1.08;;;;;;;;;;2074405;28;20394;-72
2024/04/06 02:28:33;;;;;;;6.95;1.23;;;;;;;;;;2071695;28;20034;-72
2024/04/06 02:29:34;;;;;;;2.08;1.00;;;;;;;;;;2074469;28;20351;-72
2024/04/06 02:30:37;;;;;;;6.85;0.98;;;;;;;;;;2074335;28;20103;-72
2024/04/06 02:31:38;;;;;;;5.45;1.10;;;;;;;;;;2074346;28;20021;-73
2024/04/06 02:32:39;;;;;;;5.60;0.85;;;;;;;;;;2074430;28;20506;-72
2024/04/06 02:33:41;;;;;;;4.50;1.33;;;;;;;;;;2074513;28;20033;-72
2024/04/06 02:34:42;;;;;;;3.72;1.00;;;;;;;;;;2074385;28;20017;-72
2024/04/06 02:35:44;;;;;;;5.20;1.20;;;;;;;;;;2074387;28;20029;-73
2024/04/06 02:36:45;;;;;;;2.95;1.13;;;;;;;;;;2074464;28;20025;-72
2024/04/06 02:37:46;;;;;;;7.13;1.35;;;;;;;;;;2074473;28;20169;-72
2024/04/06 02:38:48;;;;;;;5.03;1.10;;;;;;;;;;2074368;28;20076;-72
2024/04/06 02:39:49;;;;;;;8.55;1.30;;;;;;;;;;2074363;28;20098;-72
2024/04/06 02:40:51;;;;;;;4.97;1.92;;;;;;;;;;2074384;28;20105;-73
2024/04/06 02:41:52;;;;;;;6.40;1.52;;;;;;;;;;2074376;28;20398;-73
2024/04/06 02:42:54;;;;;;;4.05;1.40;;;;;;;;;;2074200;28;20170;-73
2024/04/06 02:43:55;;;;;;;7.55;1.20;;;;;;;;;;2074362;28;20030;-73
2024/04/06 02:44:56;;;;;;;4.80;1.38;;;;;;;;;;2074168;28;20091;-76
2024/04/06 02:45:58;;;;;;;3.50;1.00;;;;;;;;;;2074470;28;20036;-73
2024/04/06 02:46:59;;;;;;;4.30;1.40;;;;;;;;;;2073909;28;20050;-73
2024/04/06 02:48:01;;;;;;;5.30;1.10;;;;;;;;;;2073617;28;20030;-72
2024/04/06 02:49:02;;;;;;;6.90;1.85;;;;;;;;;;2074346;28;20032;-72
2024/04/06 02:50:03;;;;;;;7.18;2.03;;;;;;;;;;2074399;28;20109;-73
2024/04/06 02:51:05;;;;;;;4.85;1.38;;;;;;;;;;2074402;28;20482;-72
2024/04/06 02:52:07;;;;;;;3.05;1.33;;;;;;;;;;2077084;28;20068;-71
2024/04/06 02:53:08;;;;;;;4.28;1.92;;;;;;;;;;2075603;28;20037;-71
2024/04/06 02:54:10;;;;;;;4.75;1.17;;;;;;;;;;2074877;28;20045;-72
2024/04/06 02:55:11;;;;;;;5.03;1.30;;;;;;;;;;2074379;28;20026;-71
2024/04/06 02:56:13;;;;;;;4.40;1.20;;;;;;;;;;2073895;28;20014;-73
2024/04/06 02:57:15;;;;;;;2.42;1.30;;;;;;;;;;2073650;28;20505;-74
2024/04/06 02:58:17;;;;;;;7.15;1.20;;;;;;;;;;2077839;28;20025;-73
2024/04/06 02:59:18;;;;;;;3.22;1.40;;;;;;;;;;2078130;28;20032;-72
2024/04/06 03:00:19;;;;;;;4.45;1.23;;;;;;;;;;2077139;28;20014;-72
2024/04/06 03:01:21;;;;;;;4.45;1.40;;;;;;;;;;2077481;28;20034;-72
2024/04/06 03:02:22;;;;;;;3.38;1.10;;;;;;;;;;2077382;28;20025;-72
2024/04/06 03:03:25;;;;;;;6.13;2.03;;;;;;;;;;2073966;28;20067;-72
2024/04/06 03:04:26;;;;;;;2.83;1.33;;;;;;;;;;2073611;28;20046;-73
2024/04/06 03:05:27;;;;;;;3.75;1.30;;;;;;;;;;2074235;28;20482;-73
2024/04/06 03:06:29;;;;;;;4.97;1.02;;;;;;;;;;2073746;28;20033;-73
2024/04/06 03:07:31;;;;;;;6.38;1.25;;;;;;;;;;2073673;28;20022;-74
2024/04/06 03:08:33;;;;;;;6.03;1.30;;;;;;;;;;2074085;28;20065;-74
2024/04/06 03:09:35;;;;;;;3.45;1.38;;;;;;;;;;2071963;28;20459;-72
2024/04/06 03:10:37;;;;;;;3.45;1.20;;;;;;;;;;2074221;28;20025;-72
2024/04/06 03:11:38;;;;;;;5.35;1.00;;;;;;;;;;2074163;28;20463;-73
2024/04/06 03:12:41;;;;;;;7.22;1.33;;;;;;;;;;2073625;28;20102;-73
2024/04/06 03:13:42;;;;;;;2.97;1.10;;;;;;;;;;2073437;28;20029;-73
2024/04/06 03:14:43;;;;;;;5.32;1.27;;;;;;;;;;2073901;28;20499;-73
2024/04/06 03:15:45;;;;;;;10.85;1.85;;;;;;;;;;2074181;28;20456;-73
2024/04/06 03:16:46;;;;;;;4.53;1.70;;;;;;;;;;2074148;28;20058;-72
2024/04/06 03:17:48;;;;;;;6.97;1.75;;;;;;;;;;2074009;28;20022;-72
2024/04/06 03:18:49;;;;;;;7.72;1.95;;;;;;;;;;2074152;28;20026;-72
2024/04/06 03:19:50;;;;;;;6.40;2.03;;;;;;;;;;2074091;28;20053;-72
2024/04/06 03:20:52;;;;;;;3.63;1.60;;;;;;;;;;2074027;28;20034;-72
2024/04/06 03:21:54;;;;;;;5.57;1.88;;;;;;;;;;2074161;28;20113;-72
2024/04/06 03:23:00;;;;;;;3.67;1.50;;;;;;;;;;2073376;28;20042;-71
2024/04/06 03:24:01;;;;;;;4.63;1.70;;;;;;;;;;2073461;28;20115;-73
2024/04/06 03:25:04;;;;;;;3.58;1.58;;;;;;;;;;2071250;28;20037;-73
2024/04/06 03:26:05;;;;;;;5.05;1.60;;;;;;;;;;2074099;28;20018;-72
2024/04/06 03:27:06;;;;;;;4.10;1.70;;;;;;;;;;2074084;28;20084;-73
2024/04/06 03:28:08;;;;;;;2.38;1.45;;;;;;;;;;2073861;28;20014;-73
2024/04/06 03:29:09;;;;;;;3.63;1.48;;;;;;;;;;2074017;28;20410;-72
2024/04/06 03:30:10;;;;;;;3.10;1.48;;;;;;;;;;2073920;28;20013;-73
2024/04/06 03:31:12;;;;;;;4.32;1.42;;;;;;;;;;2074037;28;20380;-72
2024/04/06 03:32:13;;;;;;;3.75;1.33;;;;;;;;;;2074060;28;20171;-73
2024/04/06 03:33:15;;;;;;;4.88;1.40;;;;;;;;;;2073904;28;20547;-72
2024/04/06 03:34:17;;;;;;;4.00;1.25;;;;;;;;;;2073881;28;20026;-72
2024/04/06 03:35:20;;;;;;;3.80;1.25;;;;;;;;;;2073979;28;20598;-72
2024/04/06 03:36:21;;;;;;;4.82;1.42;;;;;;;;;;2073962;28;20372;-72
2024/04/06 03:37:23;;;;;;;3.15;1.08;;;;;;;;;;2071437;28;20048;-73
2024/04/06 03:38:24;;;;;;;4.65;1.50;;;;;;;;;;2073494;28;20111;-72
2024/04/06 03:39:25;;;;;;;3.50;1.15;;;;;;;;;;2073262;28;20026;-73
2024/04/06 03:40:27;;;;;;;3.35;1.33;;;;;;;;;;2073908;28;20022;-72
2024/04/06 03:41:28;;;;;;;2.58;1.17;;;;;;;;;;2073821;28;20439;-72
2024/04/06 03:42:30;;;;;;;3.95;1.33;;;;;;;;;;2073778;28;20149;-71
2024/04/06 03:43:31;;;;;;;3.22;1.20;;;;;;;;;;2073935;28;20019;-73
2024/04/06 03:44:32;;;;;;;2.65;1.45;;;;;;;;;;2073746;28;20045;-72
2024/04/06 03:45:37;;;;;;;4.97;1.52;;;;;;;;;;2073913;28;20029;-72
2024/04/06 03:46:39;;;;;;;4.80;1.73;;;;;;;;;;2073355;28;20073;-73
2024/04/06 03:47:40;;;;;;;4.05;1.73;;;;;;;;;;2073191;28;20108;-74
2024/04/06 03:48:42;;;;;;;5.43;1.70;;;;;;;;;;2073861;28;20120;-75
2024/04/06 03:49:44;;;;;;;3.15;1.20;;;;;;;;;;2073779;28;20407;-73
2024/04/06 03:50:45;;;;;;;4.00;1.50;;;;;;;;;;2073887;28;20112;-72
2024/04/06 03:51:47;;;;;;;5.30;1.80;;;;;;;;;;2073868;28;20022;-72
2024/04/06 03:52:49;;;;;;;4.22;1.50;;;;;;;;;;2073842;28;20026;-73
2024/04/06 03:53:51;;;;;;;4.00;1.40;;;;;;;;;;2073934;28;20025;-73
2024/04/06 03:54:52;;;;;;;3.35;1.35;;;;;;;;;;2073872;28;20064;-73
2024/04/06 03:55:54;;;;;;;4.80;1.38;;;;;;;;;;2073096;28;20037;-72
2024/04/06 03:56:56;;;;;;;3.92;1.42;;;;;;;;;;2073869;28;20060;-71
2024/04/06 03:57:57;;;;;;;6.25;1.70;;;;;;;;;;2073785;28;20076;-72
2024/04/06 03:58:59;;;;;;;5.72;1.20;;;;;;;;;;2073706;28;20030;-72
2024/04/06 04:00:00;;;;;;;6.25;1.55;;;;;;;;;;2073697;28;20171;-72
2024/04/06 04:01:02;;;;;;;5.93;1.60;;;;;;;;;;2073763;28;20037;-71
2024/04/06 04:02:03;;;;;;;5.03;1.38;;;;;;;;;;2073832;28;20026;-73
2024/04/06 04:03:05;;;;;;;4.97;1.52;;;;;;;;;;2073769;28;20030;-73
2024/04/06 04:04:07;;;;;;;3.92;1.58;;;;;;;;;;2073854;28;20014;-73
2024/04/06 04:05:08;;;;;;;5.38;1.58;;;;;;;;;;2073714;28;20506;-72
2024/04/06 04:06:10;;;;;;;2.35;1.38;;;;;;;;;;2073659;28;20020;-73
2024/04/06 04:07:11;;;;;;;4.88;1.80;;;;;;;;;;2073684;28;20032;-72
2024/04/06 04:08:12;;;;;;;3.17;1.27;;;;;;;;;;2073563;28;20021;-73
2024/04/06 04:09:16;;;;;;;3.15;1.80;;;;;;;;;;2071327;28;20069;-72
2024/04/06 04:10:17;;;;;;;3.65;1.75;;;;;;;;;;2073620;28;20018;-72
2024/04/06 04:11:19;;;;;;;6.55;1.52;;;;;;;;;;2073723;28;20036;-72
2024/04/06 04:12:20;;;;;;;8.27;1.70;;;;;;;;;;2073730;28;20101;-71
2024/04/06 04:13:23;;;;;;;5.53;1.58;;;;;;;;;;2073526;28;20111;-72
2024/04/06 04:14:24;;;;;;;3.45;1.58;;;;;;;;;;2071425;28;20014;-72
2024/04/06 04:15:26;;;;;;;4.88;1.45;;;;;;;;;;2073567;28;20029;-72
2024/04/06 04:16:27;;;;;;;4.90;1.58;;;;;;;;;;2073663;28;20092;-72
2024/04/06 04:17:30;;;;;;;3.60;1.33;;;;;;;;;;2073649;28;20484;-72
2024/04/06 04:18:31;;;;;;;5.28;1.95;;;;;;;;;;2073547;28;20020;-72
2024/04/06 04:19:32;;;;;;;6.25;1.63;;;;;;;;;;2073700;28;20053;-72
2024/04/06 04:20:34;;;;;;;5.10;2.17;;;;;;;;;;2073599;28;20025;-72
2024/04/06 04:21:35;;;;;;;7.65;1.98;;;;;;;;;;2073567;28;20036;-72
2024/04/06 04:22:36;;;;;;;2.92;1.33;;;;;;;;;;2073471;28;20041;-72
2024/04/06 04:23:38;;;;;;;3.35;1.65;;;;;;;;;;2073471;28;20037;-72
2024/04/06 04:24:39;;;;;;;5.88;1.63;;;;;;;;;;2073590;28;20537;-72
2024/04/06 04:25:41;;;;;;;2.65;1.50;;;;;;;;;;2073537;28;20065;-71
2024/04/06 04:26:43;;;;;;;6.72;1.75;;;;;;;;;;2072858;28;20110;-72
2024/04/06 04:27:44;;;;;;;7.40;1.90;;;;;;;;;;2073567;28;20037;-71
2024/04/06 04:28:45;;;;;;;3.50;1.50;;;;;;;;;;2073300;28;20064;-71
2024/04/06 04:29:47;;;;;;;3.47;1.58;;;;;;;;;;2073629;28;20045;-72
2024/04/06 04:30:48;;;;;;;6.57;1.80;;;;;;;;;;2073358;28;20390;-72
2024/04/06 04:31:49;;;;;;;4.85;1.48;;;;;;;;;;2073440;28;20025;-73
2024/04/06 04:32:51;;;;;;;3.70;1.50;;;;;;;;;;2073501;28;20403;-72
2024/04/06 04:33:52;;;;;;;3.97;1.90;;;;;;;;;;2073513;28;20024;-71
2024/04/06 04:34:54;;;;;;;3.42;1.67;;;;;;;;;;2071134;28;20025;-72
2024/04/06 04:35:55;;;;;;;3.85;1.70;;;;;;;;;;2073506;28;20487;-72
2024/04/06 04:36:57;;;;;;;5.32;1.92;;;;;;;;;;2073537;28;20103;-72
2024/04/06 04:37:58;;;;;;;3.58;1.52;;;;;;;;;;2073374;28;20022;-72
2024/04/06 04:39:00;;;;;;;2.83;1.58;;;;;;;;;;2073401;28;20026;-72
2024/04/06 04:40:01;;;;;;;3.05;1.70;;;;;;;;;;2073408;28;20068;-72
2024/04/06 04:41:03;;;;;;;3.65;1.95;;;;;;;;;;2073400;28;20486;-72
2024/04/06 04:42:04;;;;;;;6.05;1.88;;;;;;;;;;2073532;28;20486;-72
2024/04/06 04:43:05;;;;;;;6.63;2.03;;;;;;;;;;2073304;28;20156;-72
2024/04/06 04:44:07;;;;;;;5.90;2.33;;;;;;;;;;2073156;28;20061;-72
2024/04/06 04:45:11;;;;;;;6.80;2.35;;;;;;;;;;2073341;28;20421;-73
2024/04/06 04:46:12;;;;;;;5.07;1.80;;;;;;;;;;2073387;28;20084;-73
2024/04/06 04:47:14;;;;;;;4.50;1.80;;;;;;;;;;2073271;28;20029;-73
2024/04/06 04:48:15;;;;;;;4.82;2.30;;;;;;;;;;2073334;28;20039;-73
2024/04/06 04:49:16;;;;;;;8.23;2.08;;;;;;;;;;2073379;28;20099;-75
2024/04/06 04:50:18;;;;;;;7.90;2.50;;;;;;;;;;2073297;28;20022;-73
2024/04/06 04:51:21;;;;;;;5.93;2.30;;;;;;;;;;2073358;28;20467;-73
2024/04/06 04:52:22;;;;;;;4.95;1.90;;;;;;;;;;2073370;28;20021;-73
2024/04/06 04:53:23;;;;;;;3.40;1.58;;;;;;;;;;2073356;28;20034;-73
2024/04/06 04:54:26;;;;;;;2.80;1.60;;;;;;;;;;2073278;28;20518;-72
2024/04/06 04:55:27;;;;;;;6.88;1.92;;;;;;;;;;2073248;28;20022;-70
2024/04/06 04:56:28;;;;;;;4.18;1.90;;;;;;;;;;2072634;28;20093;-70
2024/04/06 04:57:30;;;;;;;4.55;1.75;;;;;;;;;;2073299;28;20573;-71
2024/04/06 04:58:31;;;;;;;3.38;1.60;;;;;;;;;;2073161;28;20028;-72
2024/04/06 04:59:32;;;;;;;7.40;1.90;;;;;;;;;;2073346;28;20096;-72
2024/04/06 05:00:34;;;;;;;4.05;1.30;;;;;;;;;;2073358;28;20030;-72
2024/04/06 05:01:35;;;;;;;5.07;1.75;;;;;;;;;;2073345;28;20017;-72
2024/04/06 05:02:36;;;;;;;5.65;1.75;;;;;;;;;;2072830;28;20180;-72
2024/04/06 05:03:38;;;;;;;4.05;1.83;;;;;;;;;;2072794;28;20083;-72
2024/04/06 05:04:39;;;;;;;3.70;1.58;;;;;;;;;;2073167;28;20342;-71
2024/04/06 05:05:41;;;;;;;4.35;1.60;;;;;;;;;;2074350;28;20018;-72
2024/04/06 05:06:42;;;;;;;7.03;1.50;;;;;;;;;;2073365;28;20053;-72
2024/04/06 05:07:44;;;;;;;7.22;1.70;;;;;;;;;;2073318;28;20026;-73
2024/04/06 05:08:45;;;;;;;7.40;1.80;;;;;;;;;;2073228;28;20030;-73
2024/04/06 05:09:47;;;;;;;2.63;1.50;;;;;;;;;;2071942;28;20046;-73
2024/04/06 05:10:48;;;;;;;2.83;1.73;;;;;;;;;;2073393;28;20022;-72
2024/04/06 05:11:49;;;;;;;5.07;1.67;;;;;;;;;;2073240;28;20510;-72
2024/04/06 05:12:51;;;;;;;5.72;1.48;;;;;;;;;;2073142;28;20045;-72
2024/04/06 05:13:52;;;;;;;5.85;1.67;;;;;;;;;;2073183;28;20050;-73
2024/04/06 05:14:54;;;;;;;3.65;1.38;;;;;;;;;;2073269;28;20029;-72
2024/04/06 05:15:56;;;;;;;3.05;1.50;;;;;;;;;;2073247;28;20021;-73
2024/04/06 05:16:57;;;;;;;4.63;1.50;;;;;;;;;;2073215;28;20483;-72
2024/04/06 05:17:58;;;;;;;3.33;1.67;;;;;;;;;;2073060;28;20030;-72
2024/04/06 05:19:00;;;;;;;2.75;1.45;;;;;;;;;;2073258;28;20032;-72
2024/04/06 05:20:01;;;;;;;3.47;1.13;;;;;;;;;;2073232;28;20053;-71
2024/04/06 05:21:03;;;;;;;2.42;1.63;;;;;;;;;;2073276;28;20022;-73
2024/04/06 05:22:06;;;;;;;5.97;1.60;;;;;;;;;;2071191;28;20483;-72
2024/04/06 05:23:07;;;;;;;4.15;1.40;;;;;;;;;;2073193;28;20029;-73
2024/04/06 05:24:08;;;;;;;3.38;1.50;;;;;;;;;;2073124;28;20133;-73
2024/04/06 05:25:11;;;;;;;3.22;1.52;;;;;;;;;;2073175;28;20505;-73
2024/04/06 05:26:12;;;;;;;3.30;1.23;;;;;;;;;;2073143;28;20025;-72
2024/04/06 05:27:13;;;;;;;3.80;1.35;;;;;;;;;;2073208;28;20108;-72
2024/04/06 05:28:16;;;;;;;6.60;1.67;;;;;;;;;;2073055;28;20029;-72
2024/04/06 05:29:18;;;;;;;3.92;1.60;;;;;;;;;;2072942;28;20084;-71
2024/04/06 05:30:19;;;;;;;3.25;1.70;;;;;;;;;;2073014;28;20022;-72
2024/04/06 05:31:22;;;;;;;3.70;1.70;;;;;;;;;;2073104;28;20032;-70
2024/04/06 05:32:23;;;;;;;4.30;2.03;;;;;;;;;;2073061;28;20029;-72
2024/04/06 05:33:25;;;;;;;6.57;2.08;;;;;;;;;;2072678;28;20129;-72
2024/04/06 05:34:26;;;;;;;5.82;1.98;;;;;;;;;;2072574;28;20022;-72
2024/04/06 05:35:27;;;;;;;4.95;1.70;;;;;;;;;;2073111;28;20097;-72
2024/04/06 05:36:29;;;;;;;4.65;1.83;;;;;;;;;;2073052;28;20060;-72
2024/04/06 05:37:30;;;;;;;3.03;1.83;;;;;;;;;;2073159;28;20034;-72
2024/04/06 05:38:31;;;;;;;6.40;1.73;;;;;;;;;;2072351;28;20024;-72
2024/04/06 05:39:33;;;;;;;4.82;1.90;;;;;;;;;;2070365;28;20052;-72
2024/04/06 05:40:38;;;;;;;5.65;1.88;;;;;;;;;;2071951;28;20437;-73
2024/04/06 05:41:39;;;;;;;3.83;1.55;;;;;;;;;;2072950;28;20506;-73
2024/04/06 05:42:40;;;;;;;3.95;1.77;;;;;;;;;;2072906;28;20022;-72
2024/04/06 05:43:42;;;;;;;6.68;1.80;;;;;;;;;;2073048;28;20033;-72
2024/04/06 05:44:43;;;;;;;3.22;1.63;;;;;;;;;;2070343;28;20042;-72
2024/04/06 05:45:44;;;;;;;3.47;1.70;;;;;;;;;;2073039;28;20394;-72
2024/04/06 05:46:46;;;;;;;2.70;1.60;;;;;;;;;;2072990;28;20352;-73
2024/04/06 05:47:47;;;;;;;5.75;1.65;;;;;;;;;;2073034;28;20068;-71
2024/04/06 05:48:48;;;;;;;3.15;1.83;;;;;;;;;;2073088;28;20029;-72
2024/04/06 05:49:50;;;;;;;4.43;1.60;;;;;;;;;;2073030;28;20099;-72
2024/04/06 05:50:51;;;;;;;3.17;1.58;;;;;;;;;;2073124;28;20502;-72
2024/04/06 05:51:52;;;;;;;4.38;1.50;;;;;;;;;;2073077;28;20010;-72
2024/04/06 05:52:54;;;;;;;5.00;1.55;;;;;;;;;;2073065;28;20072;-73
2024/04/06 05:53:55;;;;;;;7.82;2.30;;;;;;;;;;2073030;28;20033;-72
2024/04/06 05:54:59;;;;;;;4.45;1.98;;;;;;;;;;2073125;28;20018;-72
2024/04/06 05:56:00;;;;;;;5.72;1.92;;;;;;;;;;2072372;28;20022;-71
2024/04/06 05:57:03;;;;;;;3.65;1.75;;;;;;;;;;2072940;28;20026;-71
2024/04/06 05:58:04;;;;;;;4.05;1.85;;;;;;;;;;2070848;28;20030;-73
2024/04/06 05:59:07;;;;;;;4.03;1.70;;;;;;;;;;2072941;28;20022;-72
2024/04/06 06:00:09;;;;;;;8.63;1.83;;;;;;;;;;2072975;28;20014;-72
2024/04/06 06:01:11;;;;;;;4.43;1.70;;;;;;;;;;2072416;28;20053;-71
2024/04/06 06:02:12;;;;;;;5.25;2.08;;;;;;;;;;2071959;28;20026;-72
2024/04/06 06:03:14;;;;;;;6.05;1.77;;;;;;;;;;2072950;28;20026;-72
2024/04/06 06:04:15;;;;;;;5.32;1.90;;;;;;;;;;2072983;28;20053;-72
2024/04/06 06:05:16;;;;;;;5.10;1.83;;;;;;;;;;2073030;28;20083;-71
2024/04/06 06:06:18;;;;;;;6.65;1.60;;;;;;;;;;2073057;28;20045;-72
2024/04/06 06:07:20;;;;;;;6.20;1.67;;;;;;;;;;2073103;28;20026;-71
2024/04/06 06:08:22;;;;;;;3.88;1.63;;;;;;;;;;2072934;28;20487;-71
2024/04/06 06:09:23;;;;;;;5.47;2.10;;;;;;;;;;2070377;28;20049;-73